Terminal Aerodrome Forecast
Issued by NWS

Home | Current Version | Previous Version | Text Only | Print | Product List | Glossary On
Versions: 1 2 3 4 5 6 7 8 9 10 11 12 13 14 15 16 17
000
FTUS44 KLZK 171700
TAFADF
TAF
KADF 171720Z 1718/1818 21004KT P6SM SCT015
     FM172100 18005KT P6SM VCTS SCT025CB OVC250
      TEMPO 1722/1802 02015G25KT 4SM TSRA BR BKN005CB
     FM180200 18005KT 5SM BR VCSH BKN025 OVC250
     FM180600 VRB03KT 2SM BR VCSH BKN015
     FM181300 VRB03KT P6SM VCSH BKN250=

USA.gov is the U.S. government's official web portal to all federal, state and local government web resources and services.